Weather at Kasane Airport

Public forecast

Using degrees Celsius for public forecast. Weather courtesy of forecast.io.

Current aviation weather report (METAR) for Kasane Airport

Report is more than 6 hours old.

Retrieved 2021/09/19 18:00 UTC (7 hours ago):

FBKE 191800Z 12009KT CAVOK 27/11 Q1018

Aviation forecast (TAF) for Kasane Airport

Forecast is more than 12 hours old.

Retrieved 2021/09/07 15:00 UTC (12 days ago):

TAF FBKE 071200Z 0715/0724 09007KT CAVOK